New Harmony, Indiana
Current Conditions -  °F | °C
As of 4:55 PM on Wednesday 22 Oct 2014 (Local Time) from KCUL Reporting Station
Clear Clear  
Wind Chill: 63°   Ceiling: Unl
Heat Index: 63°   Visibility: 10mi
Dew Point: 42°   Wind: 6mph
Humidity: 46%   Direction: 50°NE
Pressure: 30.23"   Gusts: NA
Location:  38.13°N, 87.94°W
Report Text: KCUL 222155Z AUTO 05005KT 10SM CLR 17/05 A3023 RMK AO2 T01730054
Loading
Personal Weather Stations






























Interactive Weather Map
Tropical Storm Tracking
New forecast layout! Learn more

10-Day Weather Forecast

Advertisements
Track Severe Weather on mobile